sensor_id;sensor_type;location;lat;lon;timestamp;pressure;altitude;pressure_sealevel;temperature;humidity
4528;BME280;62320;51.520;6.818;2023-03-15T00:07:37;100685.91;;;4.52;82.74
4528;BME280;62320;51.520;6.818;2023-03-15T00:17:39;100702.19;;;4.54;83.32
4528;BME280;62320;51.520;6.818;2023-03-15T00:27:41;100708.34;;;4.64;84.82
4528;BME280;62320;51.520;6.818;2023-03-15T00:37:43;100710.09;;;4.65;86.26
4528;BME280;62320;51.520;6.818;2023-03-15T00:47:47;100728.00;;;4.63;88.33
4528;BME280;62320;51.520;6.818;2023-03-15T00:57:49;100734.53;;;4.51;89.07
4528;BME280;62320;51.520;6.818;2023-03-15T01:07:51;100741.16;;;4.43;89.86
4528;BME280;62320;51.520;6.818;2023-03-15T01:17:54;100737.50;;;4.33;90.40
4528;BME280;62320;51.520;6.818;2023-03-15T01:27:56;100749.13;;;4.20;90.71
4528;BME280;62320;51.520;6.818;2023-03-15T01:37:58;100734.19;;;4.04;91.03
4528;BME280;62320;51.520;6.818;2023-03-15T01:47:59;100767.34;;;4.00;91.46
4528;BME280;62320;51.520;6.818;2023-03-15T01:58:01;100773.09;;;3.91;91.19
4528;BME280;62320;51.520;6.818;2023-03-15T02:08:07;100795.09;;;3.86;91.36
4528;BME280;62320;51.520;6.818;2023-03-15T02:18:09;100801.97;;;3.87;91.48
4528;BME280;62320;51.520;6.818;2023-03-15T02:28:12;100804.31;;;3.80;91.25
4528;BME280;62320;51.520;6.818;2023-03-15T02:38:15;100801.72;;;3.78;91.60
4528;BME280;62320;51.520;6.818;2023-03-15T02:48:16;100800.22;;;3.86;92.67
4528;BME280;62320;51.520;6.818;2023-03-15T02:58:18;100803.47;;;3.79;93.10
4528;BME280;62320;51.520;6.818;2023-03-15T03:08:20;100832.19;;;3.71;93.22
4528;BME280;62320;51.520;6.818;2023-03-15T03:18:21;100844.63;;;3.58;93.76
4528;BME280;62320;51.520;6.818;2023-03-15T03:28:24;100870.97;;;3.56;93.58
4528;BME280;62320;51.520;6.818;2023-03-15T03:38:26;100879.41;;;3.53;94.33
4528;BME280;62320;51.520;6.818;2023-03-15T03:48:28;100896.16;;;3.44;94.78
4528;BME280;62320;51.520;6.818;2023-03-15T03:58:29;100907.44;;;3.50;95.33
4528;BME280;62320;51.520;6.818;2023-03-15T04:08:31;100920.13;;;3.47;95.50
4528;BME280;62320;51.520;6.818;2023-03-15T04:18:32;100919.06;;;3.41;95.97
4528;BME280;62320;51.520;6.818;2023-03-15T04:28:34;100930.16;;;3.41;94.81
4528;BME280;62320;51.520;6.818;2023-03-15T04:38:38;100941.97;;;3.38;94.16
4528;BME280;62320;51.520;6.818;2023-03-15T04:48:39;100945.44;;;3.40;94.39
4528;BME280;62320;51.520;6.818;2023-03-15T04:58:41;100950.56;;;3.40;93.19
4528;BME280;62320;51.520;6.818;2023-03-15T05:08:43;100965.34;;;3.23;94.34
4528;BME280;62320;51.520;6.818;2023-03-15T05:18:45;100989.41;;;3.30;93.86
4528;BME280;62320;51.520;6.818;2023-03-15T05:28:47;101005.91;;;3.39;94.56
4528;BME280;62320;51.520;6.818;2023-03-15T05:38:48;101017.75;;;3.36;94.88
4528;BME280;62320;51.520;6.818;2023-03-15T05:48:50;101034.75;;;3.35;95.01
4528;BME280;62320;51.520;6.818;2023-03-15T05:58:51;101061.06;;;3.33;94.53
4528;BME280;62320;51.520;6.818;2023-03-15T06:08:53;101070.38;;;3.31;95.32
4528;BME280;62320;51.520;6.818;2023-03-15T06:18:54;101074.88;;;3.38;97.20
4528;BME280;62320;51.520;6.818;2023-03-15T06:28:56;101093.66;;;3.38;98.72
4528;BME280;62320;51.520;6.818;2023-03-15T06:38:57;101112.38;;;3.39;97.67
4528;BME280;62320;51.520;6.818;2023-03-15T06:48:59;101125.22;;;3.40;99.03
4528;BME280;62320;51.520;6.818;2023-03-15T06:59:00;101126.47;;;3.28;100.00
4528;BME280;62320;51.520;6.818;2023-03-15T07:09:03;101150.50;;;3.33;99.92
4528;BME280;62320;51.520;6.818;2023-03-15T07:19:04;101163.81;;;3.48;100.00
4528;BME280;62320;51.520;6.818;2023-03-15T07:29:06;101178.50;;;3.53;98.87
4528;BME280;62320;51.520;6.818;2023-03-15T07:39:07;101193.81;;;3.77;97.88
4528;BME280;62320;51.520;6.818;2023-03-15T07:49:09;101221.59;;;3.92;98.33
4528;BME280;62320;51.520;6.818;2023-03-15T07:59:11;101241.63;;;4.03;96.74
4528;BME280;62320;51.520;6.818;2023-03-15T08:09:12;101259.63;;;4.06;96.31
4528;BME280;62320;51.520;6.818;2023-03-15T08:19:13;101269.94;;;4.09;96.56
4528;BME280;62320;51.520;6.818;2023-03-15T08:29:15;101280.88;;;4.29;95.94
4528;BME280;62320;51.520;6.818;2023-03-15T08:39:16;101297.19;;;4.58;96.54
4528;BME280;62320;51.520;6.818;2023-03-15T08:49:18;101305.66;;;4.82;96.01
4528;BME280;62320;51.520;6.818;2023-03-15T08:59:19;101333.16;;;5.14;96.02
4528;BME280;62320;51.520;6.818;2023-03-15T09:09:32;101345.97;;;5.14;94.13
4528;BME280;62320;51.520;6.818;2023-03-15T09:19:34;101352.75;;;5.12;93.71
4528;BME280;62320;51.520;6.818;2023-03-15T09:29:35;101357.78;;;5.37;92.70
4528;BME280;62320;51.520;6.818;2023-03-15T09:39:36;101371.56;;;5.41;92.09
4528;BME280;62320;51.520;6.818;2023-03-15T09:50:21;101371.78;;;5.47;91.00
4528;BME280;62320;51.520;6.818;2023-03-15T10:10:34;101363.28;;;5.77;91.63
4528;BME280;62320;51.520;6.818;2023-03-15T10:20:40;101361.84;;;5.86;90.47
4528;BME280;62320;51.520;6.818;2023-03-15T10:30:48;101378.53;;;6.01;91.28
4528;BME280;62320;51.520;6.818;2023-03-15T10:40:52;101375.50;;;6.16;89.85
4528;BME280;62320;51.520;6.818;2023-03-15T10:50:55;101387.56;;;6.18;88.04
4528;BME280;62320;51.520;6.818;2023-03-15T11:01:04;101385.53;;;6.07;81.97
4528;BME280;62320;51.520;6.818;2023-03-15T11:11:09;101386.56;;;6.13;86.55
4528;BME280;62320;51.520;6.818;2023-03-15T11:21:16;101409.22;;;6.26;85.89
4528;BME280;62320;51.520;6.818;2023-03-15T11:31:19;101414.28;;;6.25;84.80
4528;BME280;62320;51.520;6.818;2023-03-15T11:41:35;101422.91;;;6.27;80.22
4528;BME280;62320;51.520;6.818;2023-03-15T11:51:41;101418.09;;;6.39;83.11
4528;BME280;62320;51.520;6.818;2023-03-15T12:01:54;101416.66;;;6.48;83.36
4528;BME280;62320;51.520;6.818;2023-03-15T12:11:59;101416.34;;;6.69;73.49
4528;BME280;62320;51.520;6.818;2023-03-15T12:22:00;101419.91;;;6.74;80.44
4528;BME280;62320;51.520;6.818;2023-03-15T12:42:03;101406.88;;;7.01;76.67
4528;BME280;62320;51.520;6.818;2023-03-15T13:12:49;101412.44;;;7.17;72.97
4528;BME280;62320;51.520;6.818;2023-03-15T13:23:24;101409.03;;;7.20;75.33
4528;BME280;62320;51.520;6.818;2023-03-15T13:33:30;101412.66;;;7.27;75.87
4528;BME280;62320;51.520;6.818;2023-03-15T13:43:35;101401.00;;;7.42;72.88
4528;BME280;62320;51.520;6.818;2023-03-15T13:53:38;101412.13;;;7.41;71.04
4528;BME280;62320;51.520;6.818;2023-03-15T14:03:59;101415.66;;;7.45;68.12
4528;BME280;62320;51.520;6.818;2023-03-15T14:44:34;101438.50;;;7.33;68.71
4528;BME280;62320;51.520;6.818;2023-03-15T14:54:36;101453.13;;;7.34;64.24
4528;BME280;62320;51.520;6.818;2023-03-15T15:04:37;101451.25;;;7.28;72.94
4528;BME280;62320;51.520;6.818;2023-03-15T15:14:40;101456.38;;;7.27;67.92
4528;BME280;62320;51.520;6.818;2023-03-15T15:24:42;101450.44;;;7.29;74.34
4528;BME280;62320;51.520;6.818;2023-03-15T15:34:44;101436.53;;;7.22;73.28
4528;BME280;62320;51.520;6.818;2023-03-15T15:44:46;101432.34;;;7.25;69.55
4528;BME280;62320;51.520;6.818;2023-03-15T15:54:48;101434.84;;;7.23;73.26
4528;BME280;62320;51.520;6.818;2023-03-15T16:04:50;101431.47;;;7.26;72.22
4528;BME280;62320;51.520;6.818;2023-03-15T16:14:51;101428.69;;;7.16;74.20
4528;BME280;62320;51.520;6.818;2023-03-15T16:24:55;101423.47;;;7.13;75.40
4528;BME280;62320;51.520;6.818;2023-03-15T16:34:59;101422.66;;;7.14;74.19
4528;BME280;62320;51.520;6.818;2023-03-15T16:45:10;101432.84;;;7.11;72.76
4528;BME280;62320;51.520;6.818;2023-03-15T16:55:14;101447.13;;;7.00;73.65
4528;BME280;62320;51.520;6.818;2023-03-15T17:05:17;101450.31;;;6.90;72.98
4528;BME280;62320;51.520;6.818;2023-03-15T17:15:23;101455.03;;;6.74;74.64
4528;BME280;62320;51.520;6.818;2023-03-15T17:25:26;101462.38;;;6.60;72.10
4528;BME280;62320;51.520;6.818;2023-03-15T17:35:30;101468.91;;;6.49;69.86
4528;BME280;62320;51.520;6.818;2023-03-15T17:45:33;101478.56;;;6.28;72.80
4528;BME280;62320;51.520;6.818;2023-03-15T17:55:36;101482.13;;;6.03;73.17
4528;BME280;62320;51.520;6.818;2023-03-15T18:05:38;101484.06;;;5.84;72.63
4528;BME280;62320;51.520;6.818;2023-03-15T18:15:39;101494.41;;;5.58;72.37
4528;BME280;62320;51.520;6.818;2023-03-15T18:25:41;101499.94;;;5.45;74.12
4528;BME280;62320;51.520;6.818;2023-03-15T18:35:43;101502.56;;;5.20;73.05
4528;BME280;62320;51.520;6.818;2023-03-15T18:45:44;101518.44;;;5.10;73.82
4528;BME280;62320;51.520;6.818;2023-03-15T18:55:46;101525.53;;;4.93;73.78
4528;BME280;62320;51.520;6.818;2023-03-15T19:05:47;101523.25;;;4.77;74.62
4528;BME280;62320;51.520;6.818;2023-03-15T19:15:49;101522.13;;;4.69;76.24
4528;BME280;62320;51.520;6.818;2023-03-15T19:25:50;101519.13;;;4.57;75.88
4528;BME280;62320;51.520;6.818;2023-03-15T19:35:52;101526.47;;;4.48;77.01
4528;BME280;62320;51.520;6.818;2023-03-15T19:45:53;101527.63;;;4.34;76.19
4528;BME280;62320;51.520;6.818;2023-03-15T19:55:55;101510.50;;;4.31;76.42
4528;BME280;62320;51.520;6.818;2023-03-15T20:06:02;101535.75;;;4.22;77.29
4528;BME280;62320;51.520;6.818;2023-03-15T20:16:04;101543.31;;;4.19;76.49
4528;BME280;62320;51.520;6.818;2023-03-15T20:26:09;101531.44;;;4.21;76.55
4528;BME280;62320;51.520;6.818;2023-03-15T20:36:11;101528.53;;;4.12;76.40
4528;BME280;62320;51.520;6.818;2023-03-15T20:46:13;101516.72;;;4.16;77.09
4528;BME280;62320;51.520;6.818;2023-03-15T20:56:17;101522.66;;;4.15;77.18
4528;BME280;62320;51.520;6.818;2023-03-15T21:06:18;101526.69;;;4.08;76.97
4528;BME280;62320;51.520;6.818;2023-03-15T21:16:19;101524.88;;;4.06;77.63
4528;BME280;62320;51.520;6.818;2023-03-15T21:26:21;101520.84;;;4.12;77.86
4528;BME280;62320;51.520;6.818;2023-03-15T21:36:23;101513.53;;;3.99;78.17
4528;BME280;62320;51.520;6.818;2023-03-15T21:46:24;101496.81;;;3.87;78.39
4528;BME280;62320;51.520;6.818;2023-03-15T21:56:26;101502.66;;;3.83;78.78
4528;BME280;62320;51.520;6.818;2023-03-15T22:06:28;101497.19;;;3.74;78.80
4528;BME280;62320;51.520;6.818;2023-03-15T22:16:29;101487.09;;;3.56;79.70
4528;BME280;62320;51.520;6.818;2023-03-15T22:26:33;101482.28;;;3.63;79.58
4528;BME280;62320;51.520;6.818;2023-03-15T22:36:34;101486.09;;;3.52;79.69
4528;BME280;62320;51.520;6.818;2023-03-15T22:46:36;101478.44;;;3.52;80.40
4528;BME280;62320;51.520;6.818;2023-03-15T22:56:38;101473.63;;;3.60;79.96
4528;BME280;62320;51.520;6.818;2023-03-15T23:06:41;101474.00;;;3.48;79.68
4528;BME280;62320;51.520;6.818;2023-03-15T23:16:42;101474.56;;;3.41;80.32
4528;BME280;62320;51.520;6.818;2023-03-15T23:26:44;101479.78;;;3.43;80.21
4528;BME280;62320;51.520;6.818;2023-03-15T23:36:46;101480.34;;;3.36;80.37
4528;BME280;62320;51.520;6.818;2023-03-15T23:46:47;101471.91;;;3.38;81.09
4528;BME280;62320;51.520;6.818;2023-03-15T23:56:49;101468.81;;;3.25;80.39
